createdAt,value
2019-05-17T00:00:28.396Z,99.40
2019-05-17T00:02:57.015Z,99.40
2019-05-17T00:05:22.456Z,99.40
2019-05-17T00:08:38.486Z,99.60
2019-05-17T00:11:06.649Z,99.40
2019-05-17T00:13:32.676Z,99.40
2019-05-17T00:16:00.467Z,99.20
2019-05-17T00:18:26.593Z,99.30
2019-05-17T00:20:52.652Z,99.20
2019-05-17T00:23:20.299Z,99.10
2019-05-17T00:25:46.956Z,99.20
2019-05-17T00:28:13.201Z,99.00
2019-05-17T00:30:39.541Z,99.20
2019-05-17T00:33:07.800Z,99.30
2019-05-17T00:35:33.725Z,99.40
2019-05-17T00:37:59.793Z,99.60
2019-05-17T00:40:27.025Z,99.60
2019-05-17T00:42:53.203Z,99.70
2019-05-17T00:45:19.277Z,99.90
2019-05-17T00:47:46.803Z,99.90
2019-05-17T00:50:13.804Z,99.90
2019-05-17T00:52:39.844Z,99.80
2019-05-17T00:55:07.123Z,99.90
2019-05-17T00:57:33.156Z,99.80
2019-05-17T00:59:59.243Z,99.90
2019-05-17T01:02:27.024Z,99.90
2019-05-17T01:04:53.262Z,99.90
2019-05-17T01:07:19.351Z,99.80
2019-05-17T01:09:47.244Z,99.90
2019-05-17T01:12:16.433Z,99.90
2019-05-17T01:14:42.680Z,99.80
2019-05-17T01:17:08.743Z,99.80
2019-05-17T01:19:36.510Z,99.90
2019-05-17T01:22:02.866Z,99.80
2019-05-17T01:24:28.903Z,99.70
2019-05-17T01:26:57.266Z,99.60
2019-05-17T01:29:26.744Z,99.50
2019-05-17T01:31:52.906Z,99.50
2019-05-17T01:34:18.972Z,99.50
2019-05-17T01:36:46.428Z,99.60
2019-05-17T01:39:17.902Z,99.70
2019-05-17T01:41:41.881Z,99.70
2019-05-17T01:44:07.941Z,99.60
2019-05-17T01:46:33.973Z,99.40
2019-05-17T01:49:00.014Z,99.40
2019-05-17T01:51:26.400Z,99.20
2019-05-17T01:53:52.684Z,99.20
2019-05-17T01:56:18.736Z,99.20
2019-05-17T01:58:46.832Z,99.30
2019-05-17T02:01:12.731Z,99.50
2019-05-17T02:03:38.815Z,99.50
2019-05-17T02:06:07.235Z,99.50
2019-05-17T02:08:32.814Z,99.50
2019-05-17T02:10:59.179Z,99.50
2019-05-17T02:13:27.223Z,99.60
2019-05-17T02:15:53.267Z,99.60
2019-05-17T02:18:19.887Z,99.50
2019-05-17T02:20:46.433Z,99.50
2019-05-17T02:23:12.596Z,99.40
2019-05-17T02:25:39.033Z,99.50
2019-05-17T02:28:05.100Z,99.50
2019-05-17T02:30:33.744Z,99.40
2019-05-17T02:32:59.230Z,99.40
2019-05-17T02:35:25.309Z,99.50
2019-05-17T02:37:53.453Z,99.50
2019-05-17T02:40:22.523Z,99.50
2019-05-17T02:42:47.882Z,99.50
2019-05-17T02:45:14.257Z,99.50
2019-05-17T02:47:43.528Z,99.40
2019-05-17T02:50:08.648Z,99.40
2019-05-17T02:52:34.710Z,99.50
2019-05-17T02:55:04.056Z,99.40
2019-05-17T02:57:30.138Z,99.40
2019-05-17T02:59:56.602Z,99.50
2019-05-17T03:02:27.044Z,99.60
2019-05-17T03:04:52.635Z,99.50
2019-05-17T03:07:18.654Z,99.50
2019-05-17T03:09:45.050Z,99.60
2019-05-17T03:12:12.982Z,99.80
2019-05-17T03:14:39.212Z,99.80
2019-05-17T03:17:05.469Z,99.80
2019-05-17T03:19:32.717Z,99.80
2019-05-17T03:22:04.181Z,99.80
2019-05-17T03:24:27.295Z,99.90
2019-05-17T03:26:53.959Z,99.90
2019-05-17T03:29:22.726Z,99.80
2019-05-17T03:31:58.027Z,99.80
2019-05-17T03:34:25.845Z,99.90
2019-05-17T03:36:48.711Z,99.90
2019-05-17T03:39:16.271Z,99.90
2019-05-17T03:41:42.997Z,99.90
2019-05-17T03:44:09.199Z,99.90
2019-05-17T03:46:35.848Z,99.90
2019-05-17T03:49:03.869Z,99.90
2019-05-17T03:51:33.287Z,99.80
2019-05-17T03:54:02.126Z,99.80
2019-05-17T03:56:27.251Z,99.70
2019-05-17T03:58:53.344Z,99.90
2019-05-17T04:01:19.464Z,99.90
2019-05-17T04:03:45.492Z,99.80
2019-05-17T04:06:13.286Z,99.90
2019-05-17T04:08:42.234Z,99.90
2019-05-17T04:11:22.426Z,99.90
2019-05-17T04:13:36.315Z,99.90
2019-05-17T04:16:08.403Z,99.90
2019-05-17T04:18:33.596Z,99.90
2019-05-17T04:20:59.289Z,99.90
2019-05-17T04:23:25.329Z,99.90
2019-05-17T04:25:53.179Z,99.90
2019-05-17T04:28:22.630Z,99.90
2019-05-17T04:30:47.273Z,99.90
2019-05-17T04:33:13.413Z,99.90
2019-05-17T04:35:43.000Z,99.90
2019-05-17T04:38:07.524Z,99.90
2019-05-17T04:40:34.292Z,99.90
2019-05-17T04:43:02.980Z,99.90
2019-05-17T04:45:28.464Z,99.90
2019-05-17T04:47:54.576Z,99.90
2019-05-17T04:50:23.140Z,99.90
2019-05-17T04:52:48.631Z,99.90
2019-05-17T04:55:14.834Z,99.90
2019-05-17T04:57:43.735Z,99.90
2019-05-17T05:00:12.903Z,99.90
2019-05-17T05:02:38.702Z,99.90
2019-05-17T05:05:05.888Z,99.90
2019-05-17T05:07:33.539Z,99.90
2019-05-17T05:10:02.805Z,99.90
2019-05-17T05:12:27.871Z,99.90
2019-05-17T05:14:53.945Z,99.90
2019-05-17T05:17:22.147Z,99.90
2019-05-17T05:19:47.950Z,99.90
2019-05-17T05:22:17.384Z,99.90
2019-05-17T05:24:42.399Z,99.90
2019-05-17T05:27:08.546Z,99.90
2019-05-17T05:29:35.046Z,99.90
2019-05-17T05:32:02.688Z,99.90
2019-05-17T05:34:28.915Z,99.90
2019-05-17T05:36:55.084Z,99.90
2019-05-17T05:39:22.829Z,99.90
2019-05-17T05:41:49.823Z,99.90
2019-05-17T05:44:17.325Z,99.70
2019-05-17T05:46:43.372Z,99.60
2019-05-17T05:49:09.422Z,99.70
2019-05-17T05:51:35.458Z,99.80
2019-05-17T05:54:01.794Z,99.60
2019-05-17T05:56:27.980Z,99.60
2019-05-17T05:58:54.537Z,99.80
2019-05-17T06:01:21.962Z,99.80
2019-05-17T06:03:48.197Z,99.70
2019-05-17T06:06:15.663Z,99.90
2019-05-17T06:08:41.806Z,99.90
2019-05-17T06:11:08.948Z,99.90
2019-05-17T06:13:35.123Z,99.90
2019-05-17T06:16:02.632Z,99.90
2019-05-17T06:18:29.078Z,99.90
2019-05-17T06:20:55.115Z,99.90
2019-05-17T06:23:23.642Z,99.90
2019-05-17T06:25:52.237Z,99.90
2019-05-17T06:28:18.413Z,99.90
2019-05-17T06:30:45.033Z,99.90
2019-05-17T06:33:13.371Z,99.90
2019-05-17T06:35:42.313Z,99.90
2019-05-17T06:38:08.760Z,99.90
2019-05-17T06:44:14.818Z,99.90
2019-05-17T06:46:41.805Z,99.90
2019-05-17T06:49:08.538Z,99.90
2019-05-17T06:51:34.678Z,99.90
2019-05-17T06:54:01.805Z,99.90
2019-05-17T06:56:28.391Z,99.90
2019-05-17T06:58:56.518Z,99.90
2019-05-17T07:01:23.316Z,99.90
2019-05-17T07:03:49.591Z,99.80
2019-05-17T07:06:17.578Z,99.70
2019-05-17T07:08:43.694Z,99.10
2019-05-17T07:11:09.901Z,99.30
2019-05-17T07:13:36.123Z,99.40
2019-05-17T07:16:02.206Z,98.90
2019-05-17T07:18:30.099Z,98.50
2019-05-17T07:20:56.219Z,98.80
2019-05-17T07:23:22.255Z,98.30
2019-05-17T07:25:50.340Z,98.10
2019-05-17T07:28:19.783Z,97.90
2019-05-17T07:30:45.304Z,98.70
2019-05-17T07:33:11.351Z,98.40
2019-05-17T07:35:39.710Z,98.10
2019-05-17T07:38:06.653Z,98.40
2019-05-17T07:40:33.081Z,97.30
2019-05-17T07:43:09.754Z,97.00
2019-05-17T07:45:29.437Z,97.40
2019-05-17T07:47:55.151Z,97.50
2019-05-17T07:50:22.308Z,97.20
2019-05-17T07:52:49.968Z,96.70
2019-05-17T07:55:16.284Z,96.40
2019-05-17T07:57:42.365Z,96.60
2019-05-17T08:00:10.328Z,96.50
2019-05-17T08:02:36.693Z,96.60
2019-05-17T08:05:10.028Z,96.70
2019-05-17T08:07:35.904Z,96.10
2019-05-17T08:10:04.381Z,96.20
2019-05-17T08:12:30.685Z,96.20
2019-05-17T08:14:59.693Z,95.90
2019-05-17T08:17:25.521Z,95.70
2019-05-17T08:19:51.595Z,95.20
2019-05-17T08:22:20.017Z,95.00
2019-05-17T08:24:45.962Z,95.00
2019-05-17T08:27:12.030Z,94.70
2019-05-17T08:29:40.280Z,94.80
2019-05-17T08:32:09.499Z,94.70
2019-05-17T08:34:35.288Z,94.40
2019-05-17T08:37:01.330Z,94.00
2019-05-17T08:39:27.404Z,94.20
2019-05-17T08:41:53.455Z,94.20
2019-05-17T08:44:19.474Z,94.20
2019-05-17T08:46:46.074Z,94.20
2019-05-17T08:49:12.093Z,94.20
2019-05-17T08:51:39.680Z,93.80
2019-05-17T08:54:05.920Z,93.60
2019-05-17T08:56:31.956Z,93.50
2019-05-17T08:59:00.524Z,93.80
2019-05-17T09:01:25.971Z,93.50
2019-05-17T09:03:52.098Z,93.80
2019-05-17T09:06:19.877Z,93.70
2019-05-17T09:08:46.085Z,93.70
2019-05-17T09:11:12.966Z,94.10
2019-05-17T09:13:41.234Z,94.10
2019-05-17T09:16:10.697Z,93.40
2019-05-17T09:18:36.730Z,93.50
2019-05-17T09:21:03.025Z,93.30
2019-05-17T09:23:30.716Z,93.60
2019-05-17T09:25:56.755Z,94.00
2019-05-17T09:28:22.834Z,93.90
2019-05-17T09:30:50.750Z,94.00
2019-05-17T09:33:19.132Z,94.20
2019-05-17T09:35:44.755Z,94.30
2019-05-17T09:38:10.834Z,93.80
2019-05-17T09:40:36.888Z,94.00
2019-05-17T09:43:02.987Z,93.50
2019-05-17T09:45:30.618Z,92.90
2019-05-17T09:47:56.897Z,91.50
2019-05-17T09:50:23.032Z,91.90
2019-05-17T09:52:49.614Z,92.10
2019-05-17T09:55:15.768Z,92.30
2019-05-17T09:57:41.837Z,92.30
2019-05-17T10:00:09.930Z,92.60
2019-05-17T10:02:36.296Z,92.70
2019-05-17T10:05:05.790Z,92.30
2019-05-17T10:07:31.905Z,92.00
2019-05-17T10:09:59.712Z,92.10
2019-05-17T10:12:26.066Z,92.50
2019-05-17T10:14:52.103Z,91.70
2019-05-17T10:17:21.020Z,91.80
2019-05-17T10:19:46.747Z,92.20
2019-05-17T10:22:12.827Z,92.00
2019-05-17T10:24:42.104Z,92.20
2019-05-17T10:27:06.824Z,91.80
2019-05-17T10:29:32.862Z,91.90
2019-05-17T10:31:59.883Z,91.40
2019-05-17T10:34:26.107Z,90.70
2019-05-17T10:36:52.125Z,90.80
2019-05-17T10:39:19.350Z,91.00
2019-05-17T10:41:46.977Z,91.00
2019-05-17T10:44:12.999Z,91.50
2019-05-17T10:46:40.715Z,90.60
2019-05-17T10:49:06.991Z,91.10
2019-05-17T10:51:33.071Z,90.30
2019-05-17T10:53:59.926Z,90.70
2019-05-17T10:56:26.137Z,90.60
2019-05-17T10:58:52.198Z,90.20
2019-05-17T11:01:20.032Z,87.00
2019-05-17T11:03:46.198Z,88.00
2019-05-17T11:06:12.755Z,90.00
2019-05-17T11:08:44.641Z,90.20
2019-05-17T11:11:10.968Z,87.70
2019-05-17T11:13:37.062Z,90.00
2019-05-17T11:16:03.077Z,89.60
2019-05-17T11:18:29.895Z,88.60
2019-05-17T11:20:56.016Z,87.10
2019-05-17T11:23:23.271Z,88.70
2019-05-17T11:25:49.438Z,88.40
2019-05-17T11:28:15.558Z,88.50
2019-05-17T11:30:43.184Z,87.50
2019-05-17T11:33:09.358Z,88.10
2019-05-17T11:35:35.417Z,87.90
2019-05-17T11:38:02.586Z,86.40
2019-05-17T11:40:29.758Z,87.50
2019-05-17T11:42:56.032Z,87.40
2019-05-17T11:45:28.045Z,88.80
2019-05-17T11:47:51.546Z,86.90
2019-05-17T11:50:17.966Z,87.20
2019-05-17T11:52:43.995Z,87.70
2019-05-17T11:55:11.077Z,86.10
2019-05-17T11:57:37.153Z,86.30
2019-05-17T12:00:07.868Z,85.60
2019-05-17T12:02:33.909Z,86.20
2019-05-17T12:05:00.521Z,86.10
2019-05-17T12:07:27.324Z,84.40
2019-05-17T12:09:53.660Z,84.90
2019-05-17T12:12:19.684Z,84.20
2019-05-17T12:14:45.740Z,85.60
2019-05-17T12:17:11.830Z,84.70
2019-05-17T12:19:38.522Z,84.60
2019-05-17T12:22:04.608Z,87.70
2019-05-17T12:24:30.678Z,85.70
2019-05-17T12:26:56.775Z,85.90
2019-05-17T12:29:23.465Z,85.90
2019-05-17T12:31:50.586Z,86.40
2019-05-17T12:34:16.705Z,86.60
2019-05-17T12:36:43.652Z,87.40
2019-05-17T12:39:10.825Z,87.10
2019-05-17T12:41:36.848Z,87.40
2019-05-17T12:44:03.674Z,87.30
2019-05-17T12:46:29.693Z,86.70
2019-05-17T12:48:55.818Z,86.80
2019-05-17T12:51:21.937Z,87.70
2019-05-17T12:53:48.057Z,86.30
2019-05-17T12:56:14.107Z,85.60
2019-05-17T12:58:40.249Z,85.10
2019-05-17T13:01:06.450Z,84.10
2019-05-17T13:03:32.581Z,84.40
2019-05-17T13:05:58.631Z,83.50
2019-05-17T13:08:24.812Z,80.90
2019-05-17T13:10:51.200Z,79.80
2019-05-17T13:13:17.369Z,81.70
2019-05-17T13:15:43.412Z,81.50
2019-05-17T13:18:09.720Z,81.50
2019-05-17T13:20:35.770Z,80.40
2019-05-17T13:23:02.092Z,79.60
2019-05-17T13:25:28.495Z,77.60
2019-05-17T13:27:54.683Z,77.60
2019-05-17T13:30:20.998Z,74.30
2019-05-17T13:32:47.886Z,75.50
2019-05-17T13:35:14.542Z,76.30
2019-05-17T13:37:40.619Z,75.70
2019-05-17T13:40:07.264Z,76.20
2019-05-17T13:42:33.325Z,75.40
2019-05-17T13:44:59.353Z,75.30
2019-05-17T13:47:25.389Z,76.10
2019-05-17T13:49:51.446Z,75.30
2019-05-17T13:52:17.514Z,76.20
2019-05-17T13:54:44.289Z,72.80
2019-05-17T13:57:11.462Z,74.30
2019-05-17T13:59:37.739Z,74.70
2019-05-17T14:02:03.778Z,76.40
2019-05-17T14:04:29.876Z,73.50
2019-05-17T14:06:56.027Z,73.90
2019-05-17T14:09:22.072Z,74.20
2019-05-17T14:11:48.190Z,76.60
2019-05-17T14:14:14.359Z,75.70
2019-05-17T14:16:40.620Z,77.00
2019-05-17T14:19:06.772Z,77.00
2019-05-17T14:21:32.965Z,76.70
2019-05-17T14:23:59.192Z,73.90
2019-05-17T14:26:25.604Z,73.40
2019-05-17T14:28:52.167Z,75.70
2019-05-17T14:31:19.844Z,74.80
2019-05-17T14:33:46.263Z,73.20
2019-05-17T14:36:12.284Z,75.00
2019-05-17T14:38:38.402Z,72.20
2019-05-17T14:41:07.442Z,73.10
2019-05-17T14:43:36.393Z,75.00
2019-05-17T14:46:04.698Z,75.20
2019-05-17T14:48:32.132Z,78.60
2019-05-17T14:51:01.372Z,77.80
2019-05-17T14:53:27.955Z,77.80
2019-05-17T14:55:53.980Z,77.50
2019-05-17T14:58:20.081Z,76.90
2019-05-17T15:00:46.290Z,75.70
2019-05-17T15:03:12.473Z,74.70
2019-05-17T15:05:38.597Z,74.60
2019-05-17T15:08:04.626Z,73.90
2019-05-17T15:10:30.726Z,74.10
2019-05-17T15:13:01.623Z,73.00
2019-05-17T15:15:28.246Z,72.70
2019-05-17T15:17:54.546Z,73.70
2019-05-17T15:20:21.564Z,74.20
2019-05-17T15:22:47.726Z,73.20
2019-05-17T15:25:13.804Z,73.50
2019-05-17T15:27:45.384Z,74.10
2019-05-17T15:30:11.791Z,74.50
2019-05-17T15:32:37.822Z,74.30
2019-05-17T15:35:06.934Z,73.90
2019-05-17T15:37:34.134Z,73.10
2019-05-17T15:40:02.045Z,74.20
2019-05-17T15:42:41.883Z,74.00
2019-05-17T15:44:58.912Z,75.10
2019-05-17T15:47:25.137Z,73.90
2019-05-17T15:49:55.451Z,74.50
2019-05-17T15:52:28.982Z,74.80
2019-05-17T15:54:55.208Z,75.40
2019-05-17T15:57:21.459Z,75.70
2019-05-17T15:59:50.333Z,75.00
2019-05-17T16:02:17.662Z,73.40
2019-05-17T16:04:43.690Z,73.50
2019-05-17T16:07:09.812Z,72.10
2019-05-17T16:09:35.851Z,71.90
2019-05-17T16:12:01.960Z,72.00
2019-05-17T16:14:29.280Z,71.50
2019-05-17T16:27:19.980Z,74.20
2019-05-17T16:29:46.019Z,74.40
2019-05-17T16:32:12.107Z,74.80
2019-05-17T16:34:39.200Z,73.70
2019-05-17T16:37:05.728Z,75.20
2019-05-17T16:39:31.848Z,73.80
2019-05-17T16:41:57.880Z,73.80
2019-05-17T16:44:25.688Z,74.00
2019-05-17T16:46:51.980Z,73.70
2019-05-17T16:49:18.551Z,74.10
2019-05-17T16:51:44.851Z,73.90
2019-05-17T16:54:12.401Z,75.00
2019-05-17T16:56:38.838Z,75.50
2019-05-17T16:59:06.980Z,76.00
2019-05-17T17:01:34.670Z,76.10
2019-05-17T17:04:00.876Z,76.30
2019-05-17T17:06:26.916Z,76.20
2019-05-17T17:08:53.141Z,76.90
2019-05-17T17:11:27.756Z,77.00
2019-05-17T17:13:56.340Z,77.10
2019-05-17T17:16:22.373Z,76.80
2019-05-17T17:18:48.411Z,77.10
2019-05-17T17:21:31.512Z,77.00
2019-05-17T17:23:57.704Z,77.40
2019-05-17T17:26:35.027Z,78.00
2019-05-17T17:29:08.335Z,78.10
2019-05-17T17:31:34.447Z,77.40
2019-05-17T17:34:01.594Z,77.40
2019-05-17T17:42:08.520Z,79.00
2019-05-17T17:44:35.955Z,79.00
2019-05-17T17:47:02.006Z,79.30
2019-05-17T17:49:28.232Z,79.40
2019-05-17T17:51:54.398Z,79.30
2019-05-17T17:54:20.572Z,79.90
2019-05-17T17:56:46.620Z,80.30
2019-05-17T17:59:12.798Z,80.60
2019-05-17T18:01:38.819Z,80.40
2019-05-17T18:04:04.964Z,80.20
2019-05-17T18:06:31.700Z,80.90
2019-05-17T18:08:57.740Z,81.40
2019-05-17T18:11:23.860Z,80.90
2019-05-17T18:14:13.462Z,80.50
2019-05-17T18:16:45.082Z,80.30
2019-05-17T18:19:11.211Z,80.60
2019-05-17T18:21:37.829Z,80.90
2019-05-17T18:24:16.228Z,80.30
2019-05-17T18:29:34.930Z,81.80
2019-05-17T18:32:01.062Z,82.20
2019-05-17T18:34:27.199Z,82.20
2019-05-17T18:36:53.246Z,82.50
2019-05-17T18:39:25.568Z,82.70
2019-05-17T18:41:54.414Z,82.80
2019-05-17T18:44:27.911Z,83.40
2019-05-17T18:46:48.547Z,83.70
2019-05-17T18:49:14.695Z,84.10
2019-05-17T18:51:41.039Z,84.60
2019-05-17T18:54:08.679Z,85.30
2019-05-17T18:56:34.718Z,85.70
2019-05-17T18:59:00.984Z,86.00
2019-05-17T19:01:27.555Z,85.90
2019-05-17T19:03:54.999Z,86.20
2019-05-17T19:06:23.878Z,86.60
2019-05-17T19:08:51.347Z,87.10
2019-05-17T19:11:17.640Z,87.50
2019-05-17T19:13:44.530Z,87.80
2019-05-17T19:16:12.187Z,87.90
2019-05-17T19:18:38.327Z,88.20
2019-05-17T19:21:05.303Z,88.40
2019-05-17T19:23:31.838Z,88.90
2019-05-17T19:26:07.675Z,88.80
2019-05-17T19:28:33.892Z,89.70
2019-05-17T19:31:00.007Z,88.80
2019-05-17T19:33:26.140Z,89.20
2019-05-17T19:35:53.705Z,89.80
2019-05-17T19:38:20.559Z,90.00
2019-05-17T19:40:46.608Z,90.10
2019-05-17T19:43:12.890Z,90.30
2019-05-17T19:45:39.201Z,90.20
2019-05-17T19:48:14.828Z,90.20
2019-05-17T19:50:40.888Z,90.20
2019-05-17T19:53:07.123Z,90.30
2019-05-17T19:55:35.391Z,90.30
2019-05-17T19:58:02.876Z,90.60
2019-05-17T20:00:29.022Z,90.90
2019-05-17T20:02:55.065Z,90.90
2019-05-17T20:05:22.910Z,91.10
2019-05-17T20:07:50.729Z,91.40
2019-05-17T20:10:18.402Z,91.40
2019-05-17T20:12:45.247Z,91.50
2019-05-17T20:15:17.682Z,91.50
2019-05-17T20:17:39.740Z,91.70
2019-05-17T20:20:06.767Z,91.80
2019-05-17T20:22:33.124Z,92.00
2019-05-17T20:25:01.167Z,92.00
2019-05-17T20:27:27.416Z,92.10
2019-05-17T20:29:53.480Z,92.30
2019-05-17T20:32:19.582Z,92.30
2019-05-17T20:34:47.435Z,92.30
2019-05-17T20:37:15.130Z,92.30
2019-05-17T20:39:41.211Z,92.40
2019-05-17T20:42:07.956Z,92.40
2019-05-17T20:44:34.184Z,92.40
2019-05-17T20:47:01.219Z,92.40
2019-05-17T20:49:29.092Z,92.50
2019-05-17T20:51:56.498Z,92.60
2019-05-17T20:54:22.681Z,92.60
2019-05-17T20:56:49.639Z,92.70
2019-05-17T20:59:16.048Z,92.80
2019-05-17T21:01:42.180Z,92.90
2019-05-17T21:04:08.837Z,92.70
2019-05-17T21:06:35.148Z,92.70
2019-05-17T21:09:03.072Z,92.70
2019-05-17T21:11:30.764Z,92.80
2019-05-17T21:13:58.501Z,92.90
2019-05-17T21:16:26.161Z,93.00
2019-05-17T21:18:53.252Z,93.10
2019-05-17T21:21:20.370Z,93.10
2019-05-17T21:23:46.751Z,93.30
2019-05-17T21:26:12.819Z,93.50
2019-05-17T21:28:38.974Z,93.70
2019-05-17T21:31:08.026Z,93.70
2019-05-17T21:33:33.450Z,93.70
2019-05-17T21:35:59.848Z,93.80
2019-05-17T21:38:26.251Z,93.80
2019-05-17T21:40:52.363Z,93.70
2019-05-17T21:43:18.494Z,93.60
2019-05-17T21:45:45.325Z,93.40
2019-05-17T21:48:11.355Z,93.50
2019-05-17T21:50:38.233Z,93.50
2019-05-17T21:53:04.967Z,93.60
2019-05-17T21:55:33.451Z,93.90
2019-05-17T21:58:00.812Z,94.10
2019-05-17T22:00:50.766Z,94.20
2019-05-17T22:03:16.892Z,94.20
2019-05-17T22:05:42.923Z,94.10
2019-05-17T22:08:10.263Z,94.20
2019-05-17T22:10:36.300Z,94.50
2019-05-17T22:13:02.392Z,94.50
2019-05-17T22:15:29.116Z,94.50
2019-05-17T22:17:55.755Z,94.60
2019-05-17T22:20:21.787Z,94.60
2019-05-17T22:22:51.476Z,94.70
2019-05-17T22:25:18.631Z,94.90
2019-05-17T22:27:46.080Z,94.90
2019-05-17T22:30:12.317Z,94.80
2019-05-17T22:32:38.467Z,94.80
2019-05-17T22:35:04.736Z,95.00
2019-05-17T22:37:31.928Z,94.90
2019-05-17T22:39:59.075Z,95.00
2019-05-17T22:42:25.111Z,95.10
2019-05-17T22:44:51.155Z,95.20
2019-05-17T22:47:18.343Z,95.10
2019-05-17T22:49:53.919Z,95.40
2019-05-17T22:52:20.667Z,95.20
2019-05-17T22:54:48.755Z,95.30
2019-05-17T22:57:14.866Z,95.40
2019-05-17T22:59:41.260Z,95.10
2019-05-17T23:02:07.875Z,95.20
2019-05-17T23:04:35.655Z,95.20
2019-05-17T23:07:01.689Z,95.20
2019-05-17T23:09:27.766Z,95.30
2019-05-17T23:11:55.051Z,95.90
2019-05-17T23:14:21.243Z,95.90
2019-05-17T23:16:51.405Z,96.20
2019-05-17T23:19:16.967Z,96.10
2019-05-17T23:21:44.370Z,96.20
2019-05-17T23:24:11.072Z,95.90
2019-05-17T23:26:37.171Z,95.70
2019-05-17T23:29:03.936Z,95.80
2019-05-17T23:31:29.966Z,95.90
2019-05-17T23:34:17.850Z,95.90
2019-05-17T23:36:43.920Z,95.60
2019-05-17T23:39:12.268Z,96.00
2019-05-17T23:41:38.316Z,95.90
2019-05-17T23:44:04.422Z,95.90
2019-05-17T23:46:31.839Z,95.90
2019-05-17T23:48:58.542Z,96.10
2019-05-17T23:51:24.612Z,96.20
2019-05-17T23:53:50.699Z,96.20
2019-05-17T23:56:16.732Z,96.20
2019-05-17T23:58:42.771Z,96.40
